Etusivu
METAR-TAF:

METAR-TAF

Lentoasemat :

Koror, Babeldaob, Palau

Leveyspiiri: 07-22N, Pituuspiiri: 134-32E, korkeus merenpinnasta: 54 m

Tämänhetkinen sää

Tämä raportti tehtiin 49 minuuttia sitten, kello 13.53 UTC
tyyntä
Lämpötila 26°C
Kosteus 94%
Ilmanpaine 1009 hPa
Näkyvyys: 22.5 km
Hajanaisia pilviä 1600 ft:n korkeudessa
Hajonneita pilviä 11000 ft:n korkeudessa
Hajonneita pilviä 29000 ft:n korkeudessa

METAR: PTRO 131353Z 00000KT 14SM SCT016 BKN110 BKN290 26/25 A2979

Aika: 23:42 (14:42 UTC)

Sääennuste

Tämä raportti tehtiin 3 tuntia ja 15 minuuttia sitten, kello 11.27 UTC
Ennuste voimassa 13. päivästä klo 12 UTC - 14. päivään klo 12 UTC
Tuuli 7 kn etelästä/lounaasta
Näkyvyys: 10 km
Hajanaisia pilviä 1600 ft:n korkeudessa
Hajonneita pilviä 12000 ft:n korkeudessa
sadekuuroja näköpiirissä

TAF: PTRO 131127Z 1312/1412 20007KT P6SM VCSH SCT016 BKN120

Säähavainnot ja -ennusteet yli 4000 lentoasemalta (METAR- ja TAF-raportit).

Käytössä olevat sääasemat on merkitty karttaan keltaisilla ja punaisilla pisteillä.

Aseta hiiri pisteen päälle nähdäksesi sääaseman nimen.

Klikkaa sitten nähdäksesi säähavainnot ja -ennusteet.

Kartan vaihtaminen: klikkaa mustalla rastilla varustettuja vihreitä pisteitä, niin voit zoomata sisään; viivalla varustettua vihreää pistettä, niin voit zoomata ulos tai vihreitä nuolia, niin pääset viereisille kartoille.


METAR-TAF: